sensor_id;sensor_type;location;lat;lon;timestamp;pressure;altitude;pressure_sealevel;temperature;humidity
64230;BME280;50547;49.498;0.092;2023-12-29T00:01:05;1010.73;;;10.86;84.27
64230;BME280;50547;49.498;0.092;2023-12-29T00:03:35;1010.71;;;10.89;84.20
64230;BME280;50547;49.498;0.092;2023-12-29T00:06:05;1010.41;;;10.90;84.02
64230;BME280;50547;49.498;0.092;2023-12-29T00:08:36;1010.59;;;10.90;83.84
64230;BME280;50547;49.498;0.092;2023-12-29T00:11:05;1010.51;;;10.89;84.22
64230;BME280;50547;49.498;0.092;2023-12-29T00:13:34;1010.69;;;10.94;84.06
64230;BME280;50547;49.498;0.092;2023-12-29T00:16:00;1010.73;;;10.95;84.34
64230;BME280;50547;49.498;0.092;2023-12-29T00:18:29;1010.79;;;10.89;84.57
64230;BME280;50547;49.498;0.092;2023-12-29T00:20:58;1010.61;;;10.92;84.28
64230;BME280;50547;49.498;0.092;2023-12-29T00:23:27;1010.73;;;10.93;84.29
64230;BME280;50547;49.498;0.092;2023-12-29T00:25:56;1010.83;;;10.90;84.67
64230;BME280;50547;49.498;0.092;2023-12-29T00:28:25;1010.75;;;10.91;84.35
64230;BME280;50547;49.498;0.092;2023-12-29T00:30:54;1010.77;;;10.94;84.11
64230;BME280;50547;49.498;0.092;2023-12-29T00:33:23;1010.69;;;10.90;84.47
64230;BME280;50547;49.498;0.092;2023-12-29T00:35:52;1010.83;;;10.88;84.59
64230;BME280;50547;49.498;0.092;2023-12-29T00:38:21;1010.87;;;10.87;84.59
64230;BME280;50547;49.498;0.092;2023-12-29T00:40:50;1010.51;;;10.76;85.33
64230;BME280;50547;49.498;0.092;2023-12-29T00:43:19;1010.83;;;10.78;85.05
64230;BME280;50547;49.498;0.092;2023-12-29T00:45:48;1010.79;;;10.79;84.74
64230;BME280;50547;49.498;0.092;2023-12-29T00:48:17;1010.81;;;10.92;84.02
64230;BME280;50547;49.498;0.092;2023-12-29T00:50:46;1010.77;;;10.86;84.42
64230;BME280;50547;49.498;0.092;2023-12-29T00:53:15;1010.55;;;10.87;84.50
64230;BME280;50547;49.498;0.092;2023-12-29T00:55:44;1010.73;;;10.90;84.29
64230;BME280;50547;49.498;0.092;2023-12-29T00:58:14;1010.39;;;10.86;84.90
64230;BME280;50547;49.498;0.092;2023-12-29T01:00:43;1010.69;;;10.83;85.32
64230;BME280;50547;49.498;0.092;2023-12-29T01:03:09;1010.47;;;10.84;85.15
64230;BME280;50547;49.498;0.092;2023-12-29T01:05:37;1010.57;;;10.82;85.15
64230;BME280;50547;49.498;0.092;2023-12-29T01:08:06;1010.47;;;10.78;85.44
64230;BME280;50547;49.498;0.092;2023-12-29T01:10:33;1010.51;;;10.80;85.17
64230;BME280;50547;49.498;0.092;2023-12-29T01:13:02;1010.27;;;10.77;85.37
64230;BME280;50547;49.498;0.092;2023-12-29T01:15:31;1010.39;;;10.78;85.24
64230;BME280;50547;49.498;0.092;2023-12-29T01:18:00;1010.47;;;10.71;85.76
64230;BME280;50547;49.498;0.092;2023-12-29T01:20:29;1010.43;;;10.74;85.57
64230;BME280;50547;49.498;0.092;2023-12-29T01:22:58;1010.31;;;10.73;85.60
64230;BME280;50547;49.498;0.092;2023-12-29T01:25:27;1010.23;;;10.74;85.51
64230;BME280;50547;49.498;0.092;2023-12-29T01:27:56;1010.43;;;10.72;85.63
64230;BME280;50547;49.498;0.092;2023-12-29T01:30:25;1010.43;;;10.74;85.59
64230;BME280;50547;49.498;0.092;2023-12-29T01:32:54;1010.21;;;10.75;85.43
64230;BME280;50547;49.498;0.092;2023-12-29T01:35:23;1010.35;;;10.73;85.49
64230;BME280;50547;49.498;0.092;2023-12-29T01:37:52;1010.43;;;10.76;85.58
64230;BME280;50547;49.498;0.092;2023-12-29T01:40:21;1010.43;;;10.80;85.30
64230;BME280;50547;49.498;0.092;2023-12-29T01:42:50;1010.35;;;10.84;85.26
64230;BME280;50547;49.498;0.092;2023-12-29T01:45:21;1010.10;;;10.91;85.10
64230;BME280;50547;49.498;0.092;2023-12-29T01:47:51;1010.25;;;10.87;85.34
64230;BME280;50547;49.498;0.092;2023-12-29T01:50:32;1009.98;;;10.87;85.29
64230;BME280;50547;49.498;0.092;2023-12-29T01:53:03;1010.25;;;10.92;85.10
64230;BME280;50547;49.498;0.092;2023-12-29T01:55:34;1010.27;;;10.90;85.05
64230;BME280;50547;49.498;0.092;2023-12-29T01:58:04;1010.19;;;10.86;85.36
64230;BME280;50547;49.498;0.092;2023-12-29T02:00:33;1010.17;;;10.88;85.28
64230;BME280;50547;49.498;0.092;2023-12-29T02:03:02;1010.15;;;10.88;85.25
64230;BME280;50547;49.498;0.092;2023-12-29T02:05:34;1010.17;;;10.91;85.09
64230;BME280;50547;49.498;0.092;2023-12-29T02:08:05;1010.14;;;10.93;85.11
64230;BME280;50547;49.498;0.092;2023-12-29T02:10:48;1010.10;;;10.98;84.92
64230;BME280;50547;49.498;0.092;2023-12-29T02:13:18;1010.31;;;10.99;84.81
64230;BME280;50547;49.498;0.092;2023-12-29T02:15:49;1010.04;;;11.04;84.16
64230;BME280;50547;49.498;0.092;2023-12-29T02:18:21;1010.12;;;11.07;84.49
64230;BME280;50547;49.498;0.092;2023-12-29T02:20:51;1010.15;;;10.99;85.09
64230;BME280;50547;49.498;0.092;2023-12-29T02:23:20;1010.23;;;11.06;84.60
64230;BME280;50547;49.498;0.092;2023-12-29T02:25:50;1010.08;;;11.02;85.14
64230;BME280;50547;49.498;0.092;2023-12-29T02:28:24;1010.23;;;10.93;85.48
64230;BME280;50547;49.498;0.092;2023-12-29T02:30:57;1010.12;;;10.96;85.09
64230;BME280;50547;49.498;0.092;2023-12-29T02:33:31;1010.08;;;10.94;85.01
64230;BME280;50547;49.498;0.092;2023-12-29T02:36:03;1010.00;;;10.91;85.25
64230;BME280;50547;49.498;0.092;2023-12-29T02:38:47;1010.12;;;10.94;85.34
64230;BME280;50547;49.498;0.092;2023-12-29T02:41:16;1010.00;;;10.88;85.73
64230;BME280;50547;49.498;0.092;2023-12-29T02:43:45;1010.17;;;10.94;85.42
64230;BME280;50547;49.498;0.092;2023-12-29T02:46:14;1010.08;;;10.91;85.52
64230;BME280;50547;49.498;0.092;2023-12-29T02:48:44;1010.02;;;10.86;85.93
64230;BME280;50547;49.498;0.092;2023-12-29T02:51:13;1010.12;;;10.86;85.82
64230;BME280;50547;49.498;0.092;2023-12-29T02:53:42;1010.15;;;10.82;86.16
64230;BME280;50547;49.498;0.092;2023-12-29T02:56:11;1010.02;;;10.90;85.86
64230;BME280;50547;49.498;0.092;2023-12-29T02:58:40;1010.04;;;10.84;85.90
64230;BME280;50547;49.498;0.092;2023-12-29T03:01:09;1010.08;;;10.81;85.81
64230;BME280;50547;49.498;0.092;2023-12-29T03:03:38;1010.04;;;10.77;86.08
64230;BME280;50547;49.498;0.092;2023-12-29T03:06:07;1009.90;;;10.73;86.08
64230;BME280;50547;49.498;0.092;2023-12-29T03:08:36;1009.94;;;10.74;86.00
64230;BME280;50547;49.498;0.092;2023-12-29T03:11:05;1009.96;;;10.77;85.72
64230;BME280;50547;49.498;0.092;2023-12-29T03:13:34;1009.92;;;10.73;86.05
64230;BME280;50547;49.498;0.092;2023-12-29T03:16:04;1009.78;;;10.77;85.78
64230;BME280;50547;49.498;0.092;2023-12-29T03:18:33;1009.80;;;10.77;85.78
64230;BME280;50547;49.498;0.092;2023-12-29T03:21:02;1009.71;;;10.83;85.61
64230;BME280;50547;49.498;0.092;2023-12-29T03:23:31;1009.78;;;10.84;85.65
64230;BME280;50547;49.498;0.092;2023-12-29T03:26:00;1009.69;;;10.84;85.80
64230;BME280;50547;49.498;0.092;2023-12-29T03:28:29;1009.88;;;10.92;85.42
64230;BME280;50547;49.498;0.092;2023-12-29T03:30:58;1009.86;;;10.92;85.44
64230;BME280;50547;49.498;0.092;2023-12-29T03:33:27;1009.84;;;10.91;85.43
64230;BME280;50547;49.498;0.092;2023-12-29T03:35:56;1009.82;;;10.93;85.27
64230;BME280;50547;49.498;0.092;2023-12-29T03:38:26;1009.80;;;10.94;85.27
64230;BME280;50547;49.498;0.092;2023-12-29T03:40:56;1009.57;;;10.94;85.29
64230;BME280;50547;49.498;0.092;2023-12-29T03:43:25;1009.67;;;11.06;84.50
64230;BME280;50547;49.498;0.092;2023-12-29T03:45:59;1009.59;;;11.08;84.25
64230;BME280;50547;49.498;0.092;2023-12-29T03:48:28;1009.63;;;11.16;83.83
64230;BME280;50547;49.498;0.092;2023-12-29T03:50:57;1009.65;;;11.17;83.99
64230;BME280;50547;49.498;0.092;2023-12-29T03:53:31;1009.67;;;11.18;84.09
64230;BME280;50547;49.498;0.092;2023-12-29T03:56:04;1009.65;;;11.16;84.22
64230;BME280;50547;49.498;0.092;2023-12-29T03:58:33;1009.69;;;11.23;83.70
64230;BME280;50547;49.498;0.092;2023-12-29T04:01:03;1009.76;;;11.22;83.86
64230;BME280;50547;49.498;0.092;2023-12-29T04:03:33;1009.73;;;11.22;84.03
64230;BME280;50547;49.498;0.092;2023-12-29T04:06:02;1009.61;;;11.22;84.03
64230;BME280;50547;49.498;0.092;2023-12-29T04:08:31;1009.67;;;11.23;83.92
64230;BME280;50547;49.498;0.092;2023-12-29T04:11:00;1009.73;;;11.23;84.00
64230;BME280;50547;49.498;0.092;2023-12-29T04:13:30;1009.47;;;11.31;83.55
64230;BME280;50547;49.498;0.092;2023-12-29T04:15:59;1009.69;;;11.31;83.64
64230;BME280;50547;49.498;0.092;2023-12-29T04:18:29;1009.55;;;11.28;83.70
64230;BME280;50547;49.498;0.092;2023-12-29T04:20:58;1009.63;;;11.29;83.70
64230;BME280;50547;49.498;0.092;2023-12-29T04:23:27;1009.47;;;11.30;83.65
64230;BME280;50547;49.498;0.092;2023-12-29T04:25:56;1009.37;;;11.31;83.61
64230;BME280;50547;49.498;0.092;2023-12-29T04:28:25;1009.53;;;11.32;83.57
64230;BME280;50547;49.498;0.092;2023-12-29T04:30:54;1009.29;;;11.31;83.54
64230;BME280;50547;49.498;0.092;2023-12-29T04:33:23;1009.37;;;11.29;83.69
64230;BME280;50547;49.498;0.092;2023-12-29T04:35:52;1009.37;;;11.30;83.25
64230;BME280;50547;49.498;0.092;2023-12-29T04:38:21;1009.47;;;11.36;82.97
64230;BME280;50547;49.498;0.092;2023-12-29T04:40:50;1009.37;;;11.30;83.51
64230;BME280;50547;49.498;0.092;2023-12-29T04:43:19;1009.39;;;11.34;83.40
64230;BME280;50547;49.498;0.092;2023-12-29T04:45:48;1009.45;;;11.30;83.70
64230;BME280;50547;49.498;0.092;2023-12-29T04:48:17;1009.37;;;11.29;83.82
64230;BME280;50547;49.498;0.092;2023-12-29T04:50:46;1009.41;;;11.27;83.91
64230;BME280;50547;49.498;0.092;2023-12-29T04:53:16;1009.26;;;11.24;83.94
64230;BME280;50547;49.498;0.092;2023-12-29T04:55:45;1009.26;;;11.23;83.96
64230;BME280;50547;49.498;0.092;2023-12-29T04:58:14;1009.37;;;11.21;83.98
64230;BME280;50547;49.498;0.092;2023-12-29T05:00:43;1009.22;;;11.22;84.01
64230;BME280;50547;49.498;0.092;2023-12-29T05:03:12;1009.18;;;11.17;84.21
64230;BME280;50547;49.498;0.092;2023-12-29T05:05:41;1009.35;;;11.17;84.03
64230;BME280;50547;49.498;0.092;2023-12-29T05:08:15;1009.37;;;11.17;84.10
64230;BME280;50547;49.498;0.092;2023-12-29T05:10:44;1009.29;;;11.18;84.13
64230;BME280;50547;49.498;0.092;2023-12-29T05:13:18;1009.41;;;11.19;84.18
64230;BME280;50547;49.498;0.092;2023-12-29T05:15:47;1009.14;;;11.19;83.84
64230;BME280;50547;49.498;0.092;2023-12-29T05:18:16;1009.41;;;11.19;83.85
64230;BME280;50547;49.498;0.092;2023-12-29T05:20:45;1009.43;;;11.20;83.87
64230;BME280;50547;49.498;0.092;2023-12-29T05:23:14;1009.55;;;11.17;83.93
64230;BME280;50547;49.498;0.092;2023-12-29T05:25:43;1009.45;;;11.19;83.97
64230;BME280;50547;49.498;0.092;2023-12-29T05:28:12;1009.33;;;11.17;83.97
64230;BME280;50547;49.498;0.092;2023-12-29T05:30:41;1009.47;;;11.13;84.27
64230;BME280;50547;49.498;0.092;2023-12-29T05:33:10;1009.41;;;11.14;84.32
64230;BME280;50547;49.498;0.092;2023-12-29T05:35:40;1009.51;;;11.09;84.48
64230;BME280;50547;49.498;0.092;2023-12-29T05:38:09;1009.47;;;11.07;84.70
64230;BME280;50547;49.498;0.092;2023-12-29T05:40:38;1009.55;;;11.08;84.56
64230;BME280;50547;49.498;0.092;2023-12-29T05:43:08;1009.45;;;11.06;84.61
64230;BME280;50547;49.498;0.092;2023-12-29T05:45:37;1009.41;;;11.07;84.51
64230;BME280;50547;49.498;0.092;2023-12-29T05:48:07;1009.45;;;11.12;84.23
64230;BME280;50547;49.498;0.092;2023-12-29T05:50:36;1009.59;;;11.11;84.32
64230;BME280;50547;49.498;0.092;2023-12-29T05:53:05;1009.69;;;11.07;84.56
64230;BME280;50547;49.498;0.092;2023-12-29T05:55:34;1009.55;;;11.04;84.75
64230;BME280;50547;49.498;0.092;2023-12-29T05:58:04;1009.47;;;11.03;84.82
64230;BME280;50547;49.498;0.092;2023-12-29T06:00:33;1009.51;;;11.11;84.30
64230;BME280;50547;49.498;0.092;2023-12-29T06:03:02;1009.47;;;11.11;84.38
64230;BME280;50547;49.498;0.092;2023-12-29T06:05:31;1009.51;;;11.14;84.22
64230;BME280;50547;49.498;0.092;2023-12-29T06:08:01;1009.49;;;11.15;84.15
64230;BME280;50547;49.498;0.092;2023-12-29T06:10:30;1009.59;;;11.11;84.12
64230;BME280;50547;49.498;0.092;2023-12-29T06:13:01;1009.39;;;11.20;83.86
64230;BME280;50547;49.498;0.092;2023-12-29T06:15:30;1009.51;;;11.19;83.99
64230;BME280;50547;49.498;0.092;2023-12-29T06:17:59;1009.39;;;11.16;84.23
64230;BME280;50547;49.498;0.092;2023-12-29T06:20:28;1009.59;;;11.22;83.82
64230;BME280;50547;49.498;0.092;2023-12-29T06:22:57;1009.51;;;11.23;83.91
64230;BME280;50547;49.498;0.092;2023-12-29T06:25:26;1009.53;;;11.18;84.32
64230;BME280;50547;49.498;0.092;2023-12-29T06:27:55;1009.57;;;11.22;84.02
64230;BME280;50547;49.498;0.092;2023-12-29T06:30:24;1009.63;;;11.19;84.19
64230;BME280;50547;49.498;0.092;2023-12-29T06:32:54;1009.61;;;11.15;84.26
64230;BME280;50547;49.498;0.092;2023-12-29T06:35:23;1009.57;;;11.18;84.22
64230;BME280;50547;49.498;0.092;2023-12-29T06:37:52;1009.61;;;11.18;84.05
64230;BME280;50547;49.498;0.092;2023-12-29T06:40:21;1009.65;;;11.19;84.21
64230;BME280;50547;49.498;0.092;2023-12-29T06:42:50;1009.57;;;11.24;83.88
64230;BME280;50547;49.498;0.092;2023-12-29T06:45:19;1009.35;;;11.25;83.90
64230;BME280;50547;49.498;0.092;2023-12-29T06:47:48;1009.63;;;11.21;84.30
64230;BME280;50547;49.498;0.092;2023-12-29T06:50:17;1009.53;;;11.12;84.75
64230;BME280;50547;49.498;0.092;2023-12-29T06:52:46;1009.65;;;11.10;84.71
64230;BME280;50547;49.498;0.092;2023-12-29T06:55:15;1009.65;;;11.12;84.52
64230;BME280;50547;49.498;0.092;2023-12-29T06:57:45;1009.80;;;11.07;85.10
64230;BME280;50547;49.498;0.092;2023-12-29T07:00:14;1009.75;;;11.03;84.98
64230;BME280;50547;49.498;0.092;2023-12-29T07:02:43;1009.80;;;11.17;84.37
64230;BME280;50547;49.498;0.092;2023-12-29T07:05:12;1009.71;;;11.09;84.80
64230;BME280;50547;49.498;0.092;2023-12-29T07:07:41;1009.75;;;11.06;85.10
64230;BME280;50547;49.498;0.092;2023-12-29T07:10:12;1009.65;;;11.05;85.17
64230;BME280;50547;49.498;0.092;2023-12-29T07:12:41;1009.63;;;10.97;85.89
64230;BME280;50547;49.498;0.092;2023-12-29T07:15:10;1009.67;;;10.99;85.82
64230;BME280;50547;49.498;0.092;2023-12-29T07:17:39;1009.63;;;10.97;86.41
64230;BME280;50547;49.498;0.092;2023-12-29T07:20:09;1009.69;;;10.85;87.52
64230;BME280;50547;49.498;0.092;2023-12-29T07:22:38;1009.63;;;10.77;88.35
64230;BME280;50547;49.498;0.092;2023-12-29T07:25:07;1009.59;;;10.75;88.34
64230;BME280;50547;49.498;0.092;2023-12-29T07:27:36;1009.55;;;10.76;87.79
64230;BME280;50547;49.498;0.092;2023-12-29T07:30:07;1009.53;;;10.88;86.56
64230;BME280;50547;49.498;0.092;2023-12-29T07:32:36;1009.51;;;10.96;85.87
64230;BME280;50547;49.498;0.092;2023-12-29T07:35:06;1009.49;;;11.00;85.71
64230;BME280;50547;49.498;0.092;2023-12-29T07:37:35;1009.61;;;11.01;85.62
64230;BME280;50547;49.498;0.092;2023-12-29T07:40:06;1009.47;;;11.04;85.54
64230;BME280;50547;49.498;0.092;2023-12-29T07:42:35;1009.55;;;11.09;85.22
64230;BME280;50547;49.498;0.092;2023-12-29T07:45:05;1009.57;;;11.10;85.17
64230;BME280;50547;49.498;0.092;2023-12-29T07:47:35;1009.35;;;11.09;85.21
64230;BME280;50547;49.498;0.092;2023-12-29T07:50:05;1009.49;;;11.13;84.95
64230;BME280;50547;49.498;0.092;2023-12-29T07:52:34;1009.55;;;11.17;84.79
64230;BME280;50547;49.498;0.092;2023-12-29T07:55:04;1009.49;;;11.19;84.90
64230;BME280;50547;49.498;0.092;2023-12-29T07:57:33;1009.45;;;11.21;85.05
64230;BME280;50547;49.498;0.092;2023-12-29T08:00:03;1009.39;;;11.14;85.72
64230;BME280;50547;49.498;0.092;2023-12-29T08:02:32;1009.55;;;11.14;85.63
64230;BME280;50547;49.498;0.092;2023-12-29T08:05:02;1009.49;;;11.12;85.73
64230;BME280;50547;49.498;0.092;2023-12-29T08:07:31;1009.35;;;11.11;85.75
64230;BME280;50547;49.498;0.092;2023-12-29T08:10:00;1009.55;;;11.13;85.70
64230;BME280;50547;49.498;0.092;2023-12-29T08:12:29;1009.45;;;11.17;85.43
64230;BME280;50547;49.498;0.092;2023-12-29T08:14:58;1009.61;;;11.14;85.56
64230;BME280;50547;49.498;0.092;2023-12-29T08:17:27;1009.51;;;11.17;85.39
64230;BME280;50547;49.498;0.092;2023-12-29T08:19:56;1009.41;;;11.18;85.41
64230;BME280;50547;49.498;0.092;2023-12-29T08:22:30;1009.49;;;11.16;85.51
64230;BME280;50547;49.498;0.092;2023-12-29T08:24:59;1009.45;;;11.22;85.16
64230;BME280;50547;49.498;0.092;2023-12-29T08:27:28;1009.39;;;11.26;84.80
64230;BME280;50547;49.498;0.092;2023-12-29T08:29:57;1009.51;;;11.26;85.00
64230;BME280;50547;49.498;0.092;2023-12-29T08:32:26;1009.47;;;11.20;85.40
64230;BME280;50547;49.498;0.092;2023-12-29T08:34:55;1009.45;;;11.27;84.75
64230;BME280;50547;49.498;0.092;2023-12-29T08:37:24;1009.43;;;11.28;84.77
64230;BME280;50547;49.498;0.092;2023-12-29T08:39:54;1009.47;;;11.33;84.37
64230;BME280;50547;49.498;0.092;2023-12-29T08:42:23;1009.53;;;11.38;84.23
64230;BME280;50547;49.498;0.092;2023-12-29T08:44:52;1009.65;;;11.44;84.01
64230;BME280;50547;49.498;0.092;2023-12-29T08:47:21;1009.61;;;11.39;84.43
64230;BME280;50547;49.498;0.092;2023-12-29T08:49:51;1009.47;;;11.40;84.49
64230;BME280;50547;49.498;0.092;2023-12-29T08:52:20;1009.67;;;11.39;84.51
64230;BME280;50547;49.498;0.092;2023-12-29T08:54:49;1009.63;;;11.41;84.46
64230;BME280;50547;49.498;0.092;2023-12-29T08:57:18;1009.67;;;11.42;84.43
64230;BME280;50547;49.498;0.092;2023-12-29T08:59:44;1009.71;;;11.48;84.07
64230;BME280;50547;49.498;0.092;2023-12-29T09:02:13;1009.51;;;11.44;84.16
64230;BME280;50547;49.498;0.092;2023-12-29T09:04:42;1009.55;;;11.48;83.98
64230;BME280;50547;49.498;0.092;2023-12-29T09:07:11;1009.61;;;11.56;83.75
64230;BME280;50547;49.498;0.092;2023-12-29T09:09:40;1009.61;;;11.60;83.70
64230;BME280;50547;49.498;0.092;2023-12-29T09:12:09;1009.59;;;11.57;83.69
64230;BME280;50547;49.498;0.092;2023-12-29T09:14:38;1009.67;;;11.58;83.61
64230;BME280;50547;49.498;0.092;2023-12-29T09:17:07;1009.61;;;11.59;83.45
64230;BME280;50547;49.498;0.092;2023-12-29T09:19:36;1009.67;;;11.60;83.48
64230;BME280;50547;49.498;0.092;2023-12-29T09:22:04;1009.57;;;11.64;83.25
64230;BME280;50547;49.498;0.092;2023-12-29T09:24:33;1009.75;;;11.58;83.53
64230;BME280;50547;49.498;0.092;2023-12-29T09:27:02;1009.69;;;11.58;83.61
64230;BME280;50547;49.498;0.092;2023-12-29T09:29:31;1009.76;;;11.59;83.54
64230;BME280;50547;49.498;0.092;2023-12-29T09:32:00;1009.78;;;11.60;83.45
64230;BME280;50547;49.498;0.092;2023-12-29T09:34:29;1009.73;;;11.64;83.37
64230;BME280;50547;49.498;0.092;2023-12-29T09:36:58;1009.73;;;11.62;83.22
64230;BME280;50547;49.498;0.092;2023-12-29T09:39:27;1009.75;;;11.70;82.88
64230;BME280;50547;49.498;0.092;2023-12-29T09:41:58;1009.75;;;11.68;82.97
64230;BME280;50547;49.498;0.092;2023-12-29T09:44:27;1009.82;;;11.72;82.83
64230;BME280;50547;49.498;0.092;2023-12-29T09:47:00;1009.86;;;11.69;83.04
64230;BME280;50547;49.498;0.092;2023-12-29T09:49:37;1009.75;;;11.62;83.48
64230;BME280;50547;49.498;0.092;2023-12-29T09:52:07;1009.82;;;11.68;83.35
64230;BME280;50547;49.498;0.092;2023-12-29T09:54:38;1009.84;;;11.69;83.54
64230;BME280;50547;49.498;0.092;2023-12-29T09:57:07;1009.76;;;11.73;83.25
64230;BME280;50547;49.498;0.092;2023-12-29T09:59:38;1009.88;;;11.74;83.15
64230;BME280;50547;49.498;0.092;2023-12-29T10:02:14;1009.92;;;11.72;83.38
64230;BME280;50547;49.498;0.092;2023-12-29T10:04:43;1009.94;;;11.75;83.38
64230;BME280;50547;49.498;0.092;2023-12-29T10:07:17;1009.94;;;11.73;83.53
64230;BME280;50547;49.498;0.092;2023-12-29T10:09:45;1010.04;;;11.77;83.40
64230;BME280;50547;49.498;0.092;2023-12-29T10:12:16;1009.84;;;11.75;83.41
64230;BME280;50547;49.498;0.092;2023-12-29T10:14:49;1010.02;;;11.72;83.40
64230;BME280;50547;49.498;0.092;2023-12-29T10:17:29;1010.10;;;11.73;83.33
64230;BME280;50547;49.498;0.092;2023-12-29T10:20:06;1010.33;;;11.69;83.49
64230;BME280;50547;49.498;0.092;2023-12-29T10:22:45;1010.19;;;11.67;83.67
64230;BME280;50547;49.498;0.092;2023-12-29T10:25:17;1010.25;;;11.67;83.86
64230;BME280;50547;49.498;0.092;2023-12-29T10:27:46;1010.02;;;11.72;83.46
64230;BME280;50547;49.498;0.092;2023-12-29T10:30:15;1010.10;;;11.74;83.40
64230;BME280;50547;49.498;0.092;2023-12-29T10:32:49;1010.12;;;11.73;83.51
64230;BME280;50547;49.498;0.092;2023-12-29T10:35:19;1010.02;;;11.73;83.73
64230;BME280;50547;49.498;0.092;2023-12-29T10:37:48;1010.17;;;11.60;85.63
64230;BME280;50547;49.498;0.092;2023-12-29T10:40:18;1010.19;;;11.47;86.78
64230;BME280;50547;49.498;0.092;2023-12-29T10:42:55;1010.14;;;11.40;87.10
64230;BME280;50547;49.498;0.092;2023-12-29T10:45:24;1010.19;;;11.37;86.92
64230;BME280;50547;49.498;0.092;2023-12-29T10:47:54;1010.04;;;11.27;87.51
64230;BME280;50547;49.498;0.092;2023-12-29T10:50:23;1010.14;;;11.28;87.47
64230;BME280;50547;49.498;0.092;2023-12-29T10:53:10;1010.06;;;11.32;86.94
64230;BME280;50547;49.498;0.092;2023-12-29T10:55:39;1010.14;;;11.37;86.72
64230;BME280;50547;49.498;0.092;2023-12-29T10:58:08;1010.04;;;11.35;86.87
64230;BME280;50547;49.498;0.092;2023-12-29T11:00:37;1010.08;;;11.19;88.32
64230;BME280;50547;49.498;0.092;2023-12-29T11:03:07;1010.17;;;11.19;88.54
64230;BME280;50547;49.498;0.092;2023-12-29T11:05:36;1010.23;;;11.18;88.61
64230;BME280;50547;49.498;0.092;2023-12-29T11:08:15;1010.08;;;11.23;88.39
64230;BME280;50547;49.498;0.092;2023-12-29T11:10:45;1010.23;;;11.25;88.33
64230;BME280;50547;49.498;0.092;2023-12-29T11:13:14;1010.14;;;11.26;88.07
64230;BME280;50547;49.498;0.092;2023-12-29T11:15:44;1010.27;;;11.46;86.83
64230;BME280;50547;49.498;0.092;2023-12-29T11:18:15;1010.17;;;11.48;86.19
64230;BME280;50547;49.498;0.092;2023-12-29T11:20:45;1010.14;;;11.44;86.57
64230;BME280;50547;49.498;0.092;2023-12-29T11:23:14;1010.06;;;11.69;85.30
64230;BME280;50547;49.498;0.092;2023-12-29T11:25:44;1009.96;;;11.71;84.97
64230;BME280;50547;49.498;0.092;2023-12-29T11:28:13;1010.08;;;11.61;85.66
64230;BME280;50547;49.498;0.092;2023-12-29T11:30:43;1010.04;;;11.54;85.89
64230;BME280;50547;49.498;0.092;2023-12-29T11:33:15;1010.08;;;11.54;85.87
64230;BME280;50547;49.498;0.092;2023-12-29T11:35:51;1010.12;;;11.81;84.63
64230;BME280;50547;49.498;0.092;2023-12-29T11:38:30;1009.86;;;11.93;83.90
64230;BME280;50547;49.498;0.092;2023-12-29T11:41:07;1009.90;;;11.93;84.02
64230;BME280;50547;49.498;0.092;2023-12-29T11:43:37;1009.92;;;11.97;84.20
64230;BME280;50547;49.498;0.092;2023-12-29T11:46:06;1009.92;;;11.97;84.54
64230;BME280;50547;49.498;0.092;2023-12-29T11:49:04;1010.00;;;11.90;85.02
64230;BME280;50547;49.498;0.092;2023-12-29T11:51:35;1009.84;;;11.86;84.99
64230;BME280;50547;49.498;0.092;2023-12-29T11:54:05;1009.90;;;11.89;84.50
64230;BME280;50547;49.498;0.092;2023-12-29T11:56:36;1009.78;;;11.93;84.26
64230;BME280;50547;49.498;0.092;2023-12-29T11:59:13;1009.75;;;12.06;83.50
64230;BME280;50547;49.498;0.092;2023-12-29T12:01:43;1009.75;;;12.11;83.32
64230;BME280;50547;49.498;0.092;2023-12-29T12:04:45;1009.86;;;12.09;83.50
64230;BME280;50547;49.498;0.092;2023-12-29T12:07:16;1009.71;;;12.04;83.66
64230;BME280;50547;49.498;0.092;2023-12-29T12:09:45;1009.69;;;11.93;83.98
64230;BME280;50547;49.498;0.092;2023-12-29T12:12:14;1009.82;;;11.90;84.46
64230;BME280;50547;49.498;0.092;2023-12-29T12:15:31;1009.69;;;11.87;84.70
64230;BME280;50547;49.498;0.092;2023-12-29T12:18:01;1009.73;;;11.81;84.61
64230;BME280;50547;49.498;0.092;2023-12-29T12:20:31;1009.71;;;12.03;83.30
64230;BME280;50547;49.498;0.092;2023-12-29T12:23:01;1009.71;;;12.15;82.98
64230;BME280;50547;49.498;0.092;2023-12-29T12:25:31;1009.73;;;12.25;82.83
64230;BME280;50547;49.498;0.092;2023-12-29T12:28:02;1009.76;;;12.37;82.40
64230;BME280;50547;49.498;0.092;2023-12-29T12:30:33;1009.71;;;12.45;82.02
64230;BME280;50547;49.498;0.092;2023-12-29T12:33:03;1009.57;;;12.43;82.06
64230;BME280;50547;49.498;0.092;2023-12-29T12:35:33;1009.61;;;12.52;81.82
64230;BME280;50547;49.498;0.092;2023-12-29T12:38:10;1009.63;;;12.58;81.76
64230;BME280;50547;49.498;0.092;2023-12-29T12:40:39;1009.57;;;12.57;81.86
64230;BME280;50547;49.498;0.092;2023-12-29T12:43:13;1009.63;;;12.66;81.30
64230;BME280;50547;49.498;0.092;2023-12-29T12:45:48;1009.63;;;12.38;82.63
64230;BME280;50547;49.498;0.092;2023-12-29T12:48:20;1009.65;;;12.50;82.08
64230;BME280;50547;49.498;0.092;2023-12-29T12:50:54;1009.63;;;12.73;80.67
64230;BME280;50547;49.498;0.092;2023-12-29T12:53:23;1009.65;;;12.75;80.31
64230;BME280;50547;49.498;0.092;2023-12-29T12:55:52;1009.51;;;12.70;80.63
64230;BME280;50547;49.498;0.092;2023-12-29T12:58:22;1009.63;;;12.54;81.57
64230;BME280;50547;49.498;0.092;2023-12-29T13:00:51;1009.61;;;12.24;83.47
64230;BME280;50547;49.498;0.092;2023-12-29T13:03:21;1009.65;;;12.07;84.07
64230;BME280;50547;49.498;0.092;2023-12-29T13:05:50;1009.65;;;12.17;82.81
64230;BME280;50547;49.498;0.092;2023-12-29T13:08:20;1009.71;;;12.11;83.07
64230;BME280;50547;49.498;0.092;2023-12-29T13:10:50;1009.61;;;12.40;81.36
64230;BME280;50547;49.498;0.092;2023-12-29T13:13:19;1009.55;;;12.52;80.47
64230;BME280;50547;49.498;0.092;2023-12-29T13:15:49;1009.61;;;12.50;80.94
64230;BME280;50547;49.498;0.092;2023-12-29T13:18:28;1009.61;;;12.24;82.64
64230;BME280;50547;49.498;0.092;2023-12-29T13:20:57;1009.63;;;12.38;81.65
64230;BME280;50547;49.498;0.092;2023-12-29T13:23:27;1009.51;;;12.48;81.05
64230;BME280;50547;49.498;0.092;2023-12-29T13:25:58;1009.53;;;12.33;81.65